sensor_id;sensor_type;location;lat;lon;timestamp;temperature;humidity
2174;DHT22;1093;51.424;11.764;2024-03-02T00:00:39;4.50;1.40
2174;DHT22;1093;51.424;11.764;2024-03-02T00:03:08;4.50;1.40
2174;DHT22;1093;51.424;11.764;2024-03-02T00:05:35;4.50;1.40
2174;DHT22;1093;51.424;11.764;2024-03-02T00:08:05;4.50;1.40
2174;DHT22;1093;51.424;11.764;2024-03-02T00:10:37;4.50;1.40
2174;DHT22;1093;51.424;11.764;2024-03-02T00:13:05;4.50;1.40
2174;DHT22;1093;51.424;11.764;2024-03-02T00:15:42;4.60;1.40
2174;DHT22;1093;51.424;11.764;2024-03-02T00:18:12;4.50;1.40
2174;DHT22;1093;51.424;11.764;2024-03-02T00:20:39;4.60;1.40
2174;DHT22;1093;51.424;11.764;2024-03-02T00:23:07;4.60;1.40
2174;DHT22;1093;51.424;11.764;2024-03-02T00:25:41;4.60;1.40
2174;DHT22;1093;51.424;11.764;2024-03-02T00:28:20;4.60;1.40
2174;DHT22;1093;51.424;11.764;2024-03-02T00:31:07;4.60;1.40
2174;DHT22;1093;51.424;11.764;2024-03-02T00:33:35;4.50;1.40
2174;DHT22;1093;51.424;11.764;2024-03-02T00:36:03;4.50;1.40
2174;DHT22;1093;51.424;11.764;2024-03-02T00:38:30;4.50;1.40
2174;DHT22;1093;51.424;11.764;2024-03-02T00:40:58;4.50;1.40
2174;DHT22;1093;51.424;11.764;2024-03-02T00:43:42;4.40;1.40
2174;DHT22;1093;51.424;11.764;2024-03-02T00:46:13;4.50;1.40
2174;DHT22;1093;51.424;11.764;2024-03-02T00:48:50;4.40;1.40
2174;DHT22;1093;51.424;11.764;2024-03-02T00:51:18;4.50;1.40
2174;DHT22;1093;51.424;11.764;2024-03-02T00:53:44;4.50;1.40
2174;DHT22;1093;51.424;11.764;2024-03-02T00:56:11;4.40;1.40
2174;DHT22;1093;51.424;11.764;2024-03-02T00:58:39;4.40;1.40
2174;DHT22;1093;51.424;11.764;2024-03-02T01:01:06;4.30;1.40
2174;DHT22;1093;51.424;11.764;2024-03-02T01:03:35;4.30;1.40
2174;DHT22;1093;51.424;11.764;2024-03-02T01:06:03;4.30;1.40
2174;DHT22;1093;51.424;11.764;2024-03-02T01:08:30;4.30;1.40
2174;DHT22;1093;51.424;11.764;2024-03-02T01:10:57;4.30;1.40
2174;DHT22;1093;51.424;11.764;2024-03-02T01:13:23;4.30;1.40
2174;DHT22;1093;51.424;11.764;2024-03-02T01:15:50;4.30;1.40
2174;DHT22;1093;51.424;11.764;2024-03-02T01:18:17;4.30;1.40
2174;DHT22;1093;51.424;11.764;2024-03-02T01:20:45;4.30;1.40
2174;DHT22;1093;51.424;11.764;2024-03-02T01:23:12;4.30;1.40
2174;DHT22;1093;51.424;11.764;2024-03-02T01:25:39;4.30;1.40
2174;DHT22;1093;51.424;11.764;2024-03-02T01:28:06;4.30;1.40
2174;DHT22;1093;51.424;11.764;2024-03-02T01:30:33;4.30;1.40
2174;DHT22;1093;51.424;11.764;2024-03-02T01:33:00;4.20;1.40
2174;DHT22;1093;51.424;11.764;2024-03-02T01:35:27;4.20;1.40
2174;DHT22;1093;51.424;11.764;2024-03-02T01:37:55;4.20;1.40
2174;DHT22;1093;51.424;11.764;2024-03-02T01:40:22;4.20;1.40
2174;DHT22;1093;51.424;11.764;2024-03-02T01:42:52;4.20;1.40
2174;DHT22;1093;51.424;11.764;2024-03-02T01:45:20;4.20;1.40
2174;DHT22;1093;51.424;11.764;2024-03-02T01:47:47;4.20;1.40
2174;DHT22;1093;51.424;11.764;2024-03-02T01:50:14;4.20;1.40
2174;DHT22;1093;51.424;11.764;2024-03-02T01:52:41;4.20;1.40
2174;DHT22;1093;51.424;11.764;2024-03-02T01:55:11;4.20;1.40
2174;DHT22;1093;51.424;11.764;2024-03-02T01:57:38;4.20;1.40
2174;DHT22;1093;51.424;11.764;2024-03-02T02:00:06;4.10;1.40
2174;DHT22;1093;51.424;11.764;2024-03-02T02:02:35;4.10;1.40
2174;DHT22;1093;51.424;11.764;2024-03-02T02:05:02;4.10;1.40
2174;DHT22;1093;51.424;11.764;2024-03-02T02:07:29;4.10;1.40
2174;DHT22;1093;51.424;11.764;2024-03-02T02:09:56;4.10;1.40
2174;DHT22;1093;51.424;11.764;2024-03-02T02:12:24;4.00;1.40
2174;DHT22;1093;51.424;11.764;2024-03-02T02:14:51;4.10;1.40
2174;DHT22;1093;51.424;11.764;2024-03-02T02:17:18;4.10;1.40
2174;DHT22;1093;51.424;11.764;2024-03-02T02:19:45;4.10;1.40
2174;DHT22;1093;51.424;11.764;2024-03-02T02:22:13;4.10;1.40
2174;DHT22;1093;51.424;11.764;2024-03-02T02:24:40;4.10;1.40
2174;DHT22;1093;51.424;11.764;2024-03-02T02:27:09;4.10;1.40
2174;DHT22;1093;51.424;11.764;2024-03-02T02:29:36;4.00;1.40
2174;DHT22;1093;51.424;11.764;2024-03-02T02:32:04;4.00;1.40
2174;DHT22;1093;51.424;11.764;2024-03-02T02:34:30;4.00;1.40
2174;DHT22;1093;51.424;11.764;2024-03-02T02:36:59;4.00;1.40
2174;DHT22;1093;51.424;11.764;2024-03-02T02:39:27;4.00;1.40
2174;DHT22;1093;51.424;11.764;2024-03-02T02:41:54;4.00;1.40
2174;DHT22;1093;51.424;11.764;2024-03-02T02:44:21;4.00;1.40
2174;DHT22;1093;51.424;11.764;2024-03-02T02:46:48;4.00;1.40
2174;DHT22;1093;51.424;11.764;2024-03-02T02:49:15;4.00;1.40
2174;DHT22;1093;51.424;11.764;2024-03-02T02:51:42;4.00;1.40
2174;DHT22;1093;51.424;11.764;2024-03-02T02:54:09;4.00;1.40
2174;DHT22;1093;51.424;11.764;2024-03-02T02:56:37;3.90;1.40
2174;DHT22;1093;51.424;11.764;2024-03-02T02:59:04;4.00;1.40
2174;DHT22;1093;51.424;11.764;2024-03-02T03:01:31;4.00;1.40
2174;DHT22;1093;51.424;11.764;2024-03-02T03:03:57;4.00;1.40
2174;DHT22;1093;51.424;11.764;2024-03-02T03:06:24;4.00;1.40
2174;DHT22;1093;51.424;11.764;2024-03-02T03:08:51;4.00;1.40
2174;DHT22;1093;51.424;11.764;2024-03-02T03:11:18;4.00;1.40
2174;DHT22;1093;51.424;11.764;2024-03-02T03:13:46;4.00;1.40
2174;DHT22;1093;51.424;11.764;2024-03-02T03:16:13;4.00;1.40
2174;DHT22;1093;51.424;11.764;2024-03-02T03:18:40;4.00;1.40
2174;DHT22;1093;51.424;11.764;2024-03-02T03:21:07;4.00;1.40
2174;DHT22;1093;51.424;11.764;2024-03-02T03:23:34;4.00;1.40
2174;DHT22;1093;51.424;11.764;2024-03-02T03:26:00;4.10;1.40
2174;DHT22;1093;51.424;11.764;2024-03-02T03:28:27;4.10;1.40
2174;DHT22;1093;51.424;11.764;2024-03-02T03:30:55;4.10;1.40
2174;DHT22;1093;51.424;11.764;2024-03-02T03:33:22;4.10;1.40
2174;DHT22;1093;51.424;11.764;2024-03-02T03:35:49;4.10;1.40
2174;DHT22;1093;51.424;11.764;2024-03-02T03:38:16;4.10;1.40
2174;DHT22;1093;51.424;11.764;2024-03-02T03:40:43;4.10;1.40
2174;DHT22;1093;51.424;11.764;2024-03-02T03:43:10;4.10;1.40
2174;DHT22;1093;51.424;11.764;2024-03-02T03:45:37;4.10;1.40
2174;DHT22;1093;51.424;11.764;2024-03-02T03:48:05;4.10;1.40
2174;DHT22;1093;51.424;11.764;2024-03-02T03:50:32;4.10;1.40
2174;DHT22;1093;51.424;11.764;2024-03-02T03:52:59;4.20;1.40
2174;DHT22;1093;51.424;11.764;2024-03-02T03:55:26;4.20;1.40
2174;DHT22;1093;51.424;11.764;2024-03-02T03:57:53;4.20;1.40
2174;DHT22;1093;51.424;11.764;2024-03-02T04:00:20;4.20;1.40
2174;DHT22;1093;51.424;11.764;2024-03-02T04:02:47;4.20;1.40
2174;DHT22;1093;51.424;11.764;2024-03-02T04:05:15;4.20;1.40
2174;DHT22;1093;51.424;11.764;2024-03-02T04:07:42;4.20;1.40
2174;DHT22;1093;51.424;11.764;2024-03-02T04:10:09;4.30;1.40
2174;DHT22;1093;51.424;11.764;2024-03-02T04:12:38;4.30;1.40
2174;DHT22;1093;51.424;11.764;2024-03-02T04:15:05;4.40;1.40
2174;DHT22;1093;51.424;11.764;2024-03-02T04:17:33;4.40;1.40
2174;DHT22;1093;51.424;11.764;2024-03-02T04:20:01;4.40;1.40
2174;DHT22;1093;51.424;11.764;2024-03-02T04:22:33;4.50;1.40
2174;DHT22;1093;51.424;11.764;2024-03-02T04:25:03;4.50;1.40
2174;DHT22;1093;51.424;11.764;2024-03-02T04:27:32;4.50;1.40
2174;DHT22;1093;51.424;11.764;2024-03-02T04:29:59;4.60;1.40
2174;DHT22;1093;51.424;11.764;2024-03-02T04:32:26;4.60;1.40
2174;DHT22;1093;51.424;11.764;2024-03-02T04:34:53;4.60;1.40
2174;DHT22;1093;51.424;11.764;2024-03-02T04:37:20;4.60;1.40
2174;DHT22;1093;51.424;11.764;2024-03-02T04:39:48;4.60;1.40
2174;DHT22;1093;51.424;11.764;2024-03-02T04:42:15;4.60;1.40
2174;DHT22;1093;51.424;11.764;2024-03-02T04:44:42;4.60;1.40
2174;DHT22;1093;51.424;11.764;2024-03-02T04:47:09;4.60;1.40
2174;DHT22;1093;51.424;11.764;2024-03-02T04:49:36;4.60;1.40
2174;DHT22;1093;51.424;11.764;2024-03-02T04:52:03;4.60;1.40
2174;DHT22;1093;51.424;11.764;2024-03-02T04:54:30;4.60;1.40
2174;DHT22;1093;51.424;11.764;2024-03-02T04:56:58;4.60;1.40
2174;DHT22;1093;51.424;11.764;2024-03-02T04:59:25;4.60;1.40
2174;DHT22;1093;51.424;11.764;2024-03-02T05:01:52;4.70;1.40
2174;DHT22;1093;51.424;11.764;2024-03-02T05:04:19;4.70;1.40
2174;DHT22;1093;51.424;11.764;2024-03-02T05:06:46;4.80;1.40
2174;DHT22;1093;51.424;11.764;2024-03-02T05:09:17;4.80;1.40
2174;DHT22;1093;51.424;11.764;2024-03-02T05:11:44;4.80;1.40
2174;DHT22;1093;51.424;11.764;2024-03-02T05:14:23;4.80;1.40
2174;DHT22;1093;51.424;11.764;2024-03-02T05:16:50;4.80;1.40
2174;DHT22;1093;51.424;11.764;2024-03-02T05:19:17;4.90;1.40
2174;DHT22;1093;51.424;11.764;2024-03-02T05:21:44;4.90;1.40
2174;DHT22;1093;51.424;11.764;2024-03-02T05:24:11;4.90;1.40
2174;DHT22;1093;51.424;11.764;2024-03-02T05:26:37;4.90;1.40
2174;DHT22;1093;51.424;11.764;2024-03-02T05:29:04;4.90;1.40
2174;DHT22;1093;51.424;11.764;2024-03-02T05:31:33;5.00;1.40
2174;DHT22;1093;51.424;11.764;2024-03-02T05:34:00;5.00;1.40
2174;DHT22;1093;51.424;11.764;2024-03-02T05:36:27;5.00;1.40
2174;DHT22;1093;51.424;11.764;2024-03-02T05:38:53;5.10;1.40
2174;DHT22;1093;51.424;11.764;2024-03-02T05:41:20;5.20;1.40
2174;DHT22;1093;51.424;11.764;2024-03-02T05:43:47;5.20;1.40
2174;DHT22;1093;51.424;11.764;2024-03-02T05:46:15;5.30;1.40
2174;DHT22;1093;51.424;11.764;2024-03-02T05:48:43;5.30;1.40
2174;DHT22;1093;51.424;11.764;2024-03-02T05:51:09;5.30;1.40
2174;DHT22;1093;51.424;11.764;2024-03-02T05:53:36;5.30;1.40
2174;DHT22;1093;51.424;11.764;2024-03-02T05:56:04;5.30;1.40
2174;DHT22;1093;51.424;11.764;2024-03-02T05:58:31;5.40;1.40
2174;DHT22;1093;51.424;11.764;2024-03-02T06:01:11;5.40;1.40
2174;DHT22;1093;51.424;11.764;2024-03-02T06:03:38;5.40;1.40
2174;DHT22;1093;51.424;11.764;2024-03-02T06:06:07;5.40;1.40
2174;DHT22;1093;51.424;11.764;2024-03-02T06:08:34;5.50;1.40
2174;DHT22;1093;51.424;11.764;2024-03-02T06:11:01;5.50;1.40
2174;DHT22;1093;51.424;11.764;2024-03-02T06:13:28;5.50;1.40
2174;DHT22;1093;51.424;11.764;2024-03-02T06:15:55;5.60;1.40
2174;DHT22;1093;51.424;11.764;2024-03-02T06:18:22;5.60;1.40
2174;DHT22;1093;51.424;11.764;2024-03-02T06:20:49;5.70;1.40
2174;DHT22;1093;51.424;11.764;2024-03-02T06:23:17;5.80;1.40
2174;DHT22;1093;51.424;11.764;2024-03-02T06:25:44;5.80;1.40
2174;DHT22;1093;51.424;11.764;2024-03-02T06:28:11;5.90;1.40
2174;DHT22;1093;51.424;11.764;2024-03-02T06:30:40;5.90;1.40
2174;DHT22;1093;51.424;11.764;2024-03-02T06:33:07;6.00;1.40
2174;DHT22;1093;51.424;11.764;2024-03-02T06:35:34;6.00;1.40
2174;DHT22;1093;51.424;11.764;2024-03-02T06:38:01;6.00;1.40
2174;DHT22;1093;51.424;11.764;2024-03-02T06:40:30;6.00;1.40
2174;DHT22;1093;51.424;11.764;2024-03-02T06:42:57;6.10;1.40
2174;DHT22;1093;51.424;11.764;2024-03-02T06:45:24;6.10;1.40
2174;DHT22;1093;51.424;11.764;2024-03-02T06:47:50;6.10;1.40
2174;DHT22;1093;51.424;11.764;2024-03-02T06:50:17;6.20;1.40
2174;DHT22;1093;51.424;11.764;2024-03-02T06:52:44;6.20;1.40
2174;DHT22;1093;51.424;11.764;2024-03-02T06:55:11;6.20;1.40
2174;DHT22;1093;51.424;11.764;2024-03-02T06:57:39;6.30;1.40
2174;DHT22;1093;51.424;11.764;2024-03-02T07:00:07;6.30;1.40
2174;DHT22;1093;51.424;11.764;2024-03-02T07:02:34;6.40;1.40
2174;DHT22;1093;51.424;11.764;2024-03-02T07:05:01;6.40;1.40
2174;DHT22;1093;51.424;11.764;2024-03-02T07:07:28;6.40;1.40
2174;DHT22;1093;51.424;11.764;2024-03-02T07:09:55;6.50;1.40
2174;DHT22;1093;51.424;11.764;2024-03-02T07:12:22;6.60;1.40
2174;DHT22;1093;51.424;11.764;2024-03-02T07:14:51;6.60;1.40
2174;DHT22;1093;51.424;11.764;2024-03-02T07:17:36;6.60;1.40
2174;DHT22;1093;51.424;11.764;2024-03-02T07:20:04;6.70;1.40
2174;DHT22;1093;51.424;11.764;2024-03-02T07:22:32;6.70;1.40
2174;DHT22;1093;51.424;11.764;2024-03-02T07:24:58;6.80;1.40
2174;DHT22;1093;51.424;11.764;2024-03-02T07:27:25;6.80;1.40
2174;DHT22;1093;51.424;11.764;2024-03-02T07:29:54;6.90;1.40
2174;DHT22;1093;51.424;11.764;2024-03-02T07:32:21;7.00;1.40
2174;DHT22;1093;51.424;11.764;2024-03-02T07:34:48;7.00;1.40
2174;DHT22;1093;51.424;11.764;2024-03-02T07:37:16;7.00;1.40
2174;DHT22;1093;51.424;11.764;2024-03-02T07:39:44;7.10;1.40
2174;DHT22;1093;51.424;11.764;2024-03-02T07:42:11;7.10;1.40
2174;DHT22;1093;51.424;11.764;2024-03-02T07:44:38;7.20;1.40
2174;DHT22;1093;51.424;11.764;2024-03-02T07:47:06;7.20;1.40
2174;DHT22;1093;51.424;11.764;2024-03-02T07:49:33;7.20;1.40
2174;DHT22;1093;51.424;11.764;2024-03-02T07:52:00;7.30;1.40
2174;DHT22;1093;51.424;11.764;2024-03-02T07:54:27;7.30;1.40
2174;DHT22;1093;51.424;11.764;2024-03-02T07:56:54;7.30;1.40
2174;DHT22;1093;51.424;11.764;2024-03-02T07:59:21;7.30;1.40
2174;DHT22;1093;51.424;11.764;2024-03-02T08:01:49;7.40;1.40
2174;DHT22;1093;51.424;11.764;2024-03-02T08:04:18;7.40;1.40
2174;DHT22;1093;51.424;11.764;2024-03-02T08:06:45;7.50;1.40
2174;DHT22;1093;51.424;11.764;2024-03-02T08:09:12;7.50;1.40
2174;DHT22;1093;51.424;11.764;2024-03-02T08:11:40;7.50;1.40
2174;DHT22;1093;51.424;11.764;2024-03-02T08:14:07;7.50;1.40
2174;DHT22;1093;51.424;11.764;2024-03-02T08:16:34;7.60;1.40
2174;DHT22;1093;51.424;11.764;2024-03-02T08:19:01;7.60;1.40
2174;DHT22;1093;51.424;11.764;2024-03-02T08:21:30;7.60;1.40
2174;DHT22;1093;51.424;11.764;2024-03-02T08:23:57;7.60;1.40
2174;DHT22;1093;51.424;11.764;2024-03-02T08:26:24;7.70;1.40
2174;DHT22;1093;51.424;11.764;2024-03-02T08:28:54;7.70;1.40
2174;DHT22;1093;51.424;11.764;2024-03-02T08:31:21;7.80;1.40
2174;DHT22;1093;51.424;11.764;2024-03-02T08:33:48;7.90;1.40
2174;DHT22;1093;51.424;11.764;2024-03-02T08:36:15;7.90;1.40
2174;DHT22;1093;51.424;11.764;2024-03-02T08:38:44;7.90;1.40
2174;DHT22;1093;51.424;11.764;2024-03-02T08:41:11;8.00;1.40
2174;DHT22;1093;51.424;11.764;2024-03-02T08:43:40;8.00;1.40
2174;DHT22;1093;51.424;11.764;2024-03-02T08:46:08;8.10;1.40
2174;DHT22;1093;51.424;11.764;2024-03-02T08:48:35;8.10;1.40
2174;DHT22;1093;51.424;11.764;2024-03-02T08:51:02;8.20;1.40
2174;DHT22;1093;51.424;11.764;2024-03-02T08:53:31;8.20;1.40
2174;DHT22;1093;51.424;11.764;2024-03-02T08:56:00;8.30;1.40
2174;DHT22;1093;51.424;11.764;2024-03-02T08:58:27;8.30;1.40
2174;DHT22;1093;51.424;11.764;2024-03-02T09:00:54;8.50;1.40
2174;DHT22;1093;51.424;11.764;2024-03-02T09:03:21;8.50;1.40
2174;DHT22;1093;51.424;11.764;2024-03-02T09:05:48;8.60;1.40
2174;DHT22;1093;51.424;11.764;2024-03-02T09:08:14;8.60;1.40
2174;DHT22;1093;51.424;11.764;2024-03-02T09:10:41;8.70;1.40
2174;DHT22;1093;51.424;11.764;2024-03-02T09:13:10;8.80;1.40
2174;DHT22;1093;51.424;11.764;2024-03-02T09:15:38;8.80;1.40
2174;DHT22;1093;51.424;11.764;2024-03-02T09:18:05;8.80;1.40
2174;DHT22;1093;51.424;11.764;2024-03-02T09:20:32;8.90;1.40
2174;DHT22;1093;51.424;11.764;2024-03-02T09:22:59;9.00;1.40
2174;DHT22;1093;51.424;11.764;2024-03-02T09:25:25;9.10;1.40
2174;DHT22;1093;51.424;11.764;2024-03-02T09:27:52;9.20;1.40
2174;DHT22;1093;51.424;11.764;2024-03-02T09:30:21;9.20;1.40
2174;DHT22;1093;51.424;11.764;2024-03-02T09:32:48;9.20;1.40
2174;DHT22;1093;51.424;11.764;2024-03-02T09:35:16;9.30;1.40
2174;DHT22;1093;51.424;11.764;2024-03-02T09:37:43;9.50;1.40
2174;DHT22;1093;51.424;11.764;2024-03-02T09:40:11;9.70;1.40
2174;DHT22;1093;51.424;11.764;2024-03-02T09:42:37;9.80;1.40
2174;DHT22;1093;51.424;11.764;2024-03-02T09:45:06;9.90;1.40
2174;DHT22;1093;51.424;11.764;2024-03-02T09:47:35;10.10;1.40
2174;DHT22;1093;51.424;11.764;2024-03-02T09:50:03;10.20;1.40
2174;DHT22;1093;51.424;11.764;2024-03-02T09:52:31;10.30;1.40
2174;DHT22;1093;51.424;11.764;2024-03-02T09:54:58;10.40;1.40
2174;DHT22;1093;51.424;11.764;2024-03-02T09:57:25;10.40;1.40
2174;DHT22;1093;51.424;11.764;2024-03-02T09:59:52;10.50;1.40
2174;DHT22;1093;51.424;11.764;2024-03-02T10:02:19;10.50;1.40
2174;DHT22;1093;51.424;11.764;2024-03-02T10:04:49;10.60;1.40
2174;DHT22;1093;51.424;11.764;2024-03-02T10:07:17;10.70;1.40
2174;DHT22;1093;51.424;11.764;2024-03-02T10:09:45;10.70;1.40
2174;DHT22;1093;51.424;11.764;2024-03-02T10:12:14;10.70;1.40
2174;DHT22;1093;51.424;11.764;2024-03-02T10:14:42;10.80;1.40
2174;DHT22;1093;51.424;11.764;2024-03-02T10:17:10;10.80;1.40
2174;DHT22;1093;51.424;11.764;2024-03-02T10:19:37;10.80;1.40
2174;DHT22;1093;51.424;11.764;2024-03-02T10:22:07;10.90;1.40
2174;DHT22;1093;51.424;11.764;2024-03-02T10:24:36;10.90;1.40
2174;DHT22;1093;51.424;11.764;2024-03-02T10:27:07;10.90;1.40
2174;DHT22;1093;51.424;11.764;2024-03-02T10:29:39;11.00;1.40
2174;DHT22;1093;51.424;11.764;2024-03-02T10:32:08;11.00;1.40
2174;DHT22;1093;51.424;11.764;2024-03-02T10:34:37;11.00;1.40
2174;DHT22;1093;51.424;11.764;2024-03-02T10:37:05;11.10;1.40
2174;DHT22;1093;51.424;11.764;2024-03-02T10:39:34;11.10;1.40
2174;DHT22;1093;51.424;11.764;2024-03-02T10:42:03;11.10;1.40
2174;DHT22;1093;51.424;11.764;2024-03-02T10:44:30;11.20;1.40
2174;DHT22;1093;51.424;11.764;2024-03-02T10:47:00;11.20;1.40
2174;DHT22;1093;51.424;11.764;2024-03-02T10:49:29;11.30;1.40
2174;DHT22;1093;51.424;11.764;2024-03-02T10:51:56;11.30;1.40
2174;DHT22;1093;51.424;11.764;2024-03-02T10:54:25;11.40;1.40
2174;DHT22;1093;51.424;11.764;2024-03-02T10:56:58;11.40;1.40
2174;DHT22;1093;51.424;11.764;2024-03-02T10:59:33;11.40;1.40
2174;DHT22;1093;51.424;11.764;2024-03-02T11:02:01;11.40;1.40
2174;DHT22;1093;51.424;11.764;2024-03-02T11:04:29;11.50;1.40
2174;DHT22;1093;51.424;11.764;2024-03-02T11:07:00;11.50;1.40
2174;DHT22;1093;51.424;11.764;2024-03-02T11:09:29;11.60;1.40
2174;DHT22;1093;51.424;11.764;2024-03-02T11:12:03;11.60;1.40
2174;DHT22;1093;51.424;11.764;2024-03-02T11:14:31;11.80;1.40
2174;DHT22;1093;51.424;11.764;2024-03-02T11:17:00;11.90;1.40
2174;DHT22;1093;51.424;11.764;2024-03-02T11:19:29;11.90;1.40
2174;DHT22;1093;51.424;11.764;2024-03-02T11:21:57;12.00;1.40
2174;DHT22;1093;51.424;11.764;2024-03-02T11:24:35;12.10;1.40
2174;DHT22;1093;51.424;11.764;2024-03-02T11:27:03;12.10;1.40
2174;DHT22;1093;51.424;11.764;2024-03-02T11:29:46;12.10;1.40
2174;DHT22;1093;51.424;11.764;2024-03-02T11:32:20;12.30;1.40
2174;DHT22;1093;51.424;11.764;2024-03-02T11:34:49;12.40;1.40
2174;DHT22;1093;51.424;11.764;2024-03-02T11:37:17;12.40;1.40
2174;DHT22;1093;51.424;11.764;2024-03-02T11:39:49;12.50;1.40
2174;DHT22;1093;51.424;11.764;2024-03-02T11:42:17;12.60;1.40
2174;DHT22;1093;51.424;11.764;2024-03-02T11:44:46;12.70;1.40
2174;DHT22;1093;51.424;11.764;2024-03-02T11:47:14;12.70;1.40
2174;DHT22;1093;51.424;11.764;2024-03-02T11:49:43;12.80;1.40
2174;DHT22;1093;51.424;11.764;2024-03-02T11:52:11;12.80;1.40
2174;DHT22;1093;51.424;11.764;2024-03-02T11:54:40;12.70;1.40
2174;DHT22;1093;51.424;11.764;2024-03-02T11:57:14;12.80;1.40
2174;DHT22;1093;51.424;11.764;2024-03-02T11:59:41;12.90;1.40
2174;DHT22;1093;51.424;11.764;2024-03-02T12:02:15;12.90;1.40
2174;DHT22;1093;51.424;11.764;2024-03-02T12:04:43;12.90;1.40
2174;DHT22;1093;51.424;11.764;2024-03-02T12:07:11;13.00;1.40
2174;DHT22;1093;51.424;11.764;2024-03-02T12:09:38;12.90;1.40
2174;DHT22;1093;51.424;11.764;2024-03-02T12:12:06;13.00;1.40
2174;DHT22;1093;51.424;11.764;2024-03-02T12:14:36;13.00;1.40
2174;DHT22;1093;51.424;11.764;2024-03-02T12:17:05;13.10;1.40
2174;DHT22;1093;51.424;11.764;2024-03-02T12:19:33;13.10;1.40
2174;DHT22;1093;51.424;11.764;2024-03-02T12:22:00;13.10;1.40
2174;DHT22;1093;51.424;11.764;2024-03-02T12:24:28;13.30;1.40
2174;DHT22;1093;51.424;11.764;2024-03-02T12:26:56;13.30;1.40
2174;DHT22;1093;51.424;11.764;2024-03-02T12:29:24;13.30;1.40
2174;DHT22;1093;51.424;11.764;2024-03-02T12:31:53;13.20;1.40
2174;DHT22;1093;51.424;11.764;2024-03-02T12:34:21;13.30;1.40
2174;DHT22;1093;51.424;11.764;2024-03-02T12:36:49;13.30;1.40
2174;DHT22;1093;51.424;11.764;2024-03-02T12:39:18;13.40;1.40
2174;DHT22;1093;51.424;11.764;2024-03-02T12:41:46;13.40;1.40
2174;DHT22;1093;51.424;11.764;2024-03-02T12:44:16;13.50;1.40
2174;DHT22;1093;51.424;11.764;2024-03-02T12:46:43;13.60;1.40
2174;DHT22;1093;51.424;11.764;2024-03-02T12:49:14;13.50;1.40
2174;DHT22;1093;51.424;11.764;2024-03-02T12:51:42;13.70;1.40
2174;DHT22;1093;51.424;11.764;2024-03-02T12:54:11;13.70;1.40
2174;DHT22;1093;51.424;11.764;2024-03-02T12:56:37;13.70;1.40
2174;DHT22;1093;51.424;11.764;2024-03-02T12:59:05;13.70;1.40
2174;DHT22;1093;51.424;11.764;2024-03-02T13:01:32;13.70;1.40
2174;DHT22;1093;51.424;11.764;2024-03-02T13:03:59;13.70;1.40
2174;DHT22;1093;51.424;11.764;2024-03-02T13:06:27;13.80;1.40
2174;DHT22;1093;51.424;11.764;2024-03-02T13:08:54;13.80;1.40
2174;DHT22;1093;51.424;11.764;2024-03-02T13:11:22;13.90;1.40
2174;DHT22;1093;51.424;11.764;2024-03-02T13:13:50;14.00;1.40
2174;DHT22;1093;51.424;11.764;2024-03-02T13:16:18;14.00;1.40
2174;DHT22;1093;51.424;11.764;2024-03-02T13:18:46;14.00;1.40
2174;DHT22;1093;51.424;11.764;2024-03-02T13:21:13;14.10;1.40
2174;DHT22;1093;51.424;11.764;2024-03-02T13:23:41;14.10;1.40
2174;DHT22;1093;51.424;11.764;2024-03-02T13:26:08;14.10;1.40
2174;DHT22;1093;51.424;11.764;2024-03-02T13:28:38;14.10;1.40
2174;DHT22;1093;51.424;11.764;2024-03-02T13:31:05;14.10;1.40
2174;DHT22;1093;51.424;11.764;2024-03-02T13:33:32;14.10;1.40
2174;DHT22;1093;51.424;11.764;2024-03-02T13:35:59;14.10;1.40
2174;DHT22;1093;51.424;11.764;2024-03-02T13:38:27;14.20;1.40
2174;DHT22;1093;51.424;11.764;2024-03-02T13:40:55;14.20;1.40
2174;DHT22;1093;51.424;11.764;2024-03-02T13:43:22;14.30;1.40
2174;DHT22;1093;51.424;11.764;2024-03-02T13:45:50;14.40;1.40
2174;DHT22;1093;51.424;11.764;2024-03-02T13:48:19;14.30;1.40
2174;DHT22;1093;51.424;11.764;2024-03-02T13:50:46;14.40;1.40
2174;DHT22;1093;51.424;11.764;2024-03-02T13:53:13;14.30;1.40
2174;DHT22;1093;51.424;11.764;2024-03-02T13:55:40;14.20;1.40
2174;DHT22;1093;51.424;11.764;2024-03-02T13:58:09;14.20;1.40
2174;DHT22;1093;51.424;11.764;2024-03-02T14:00:37;14.30;1.40
2174;DHT22;1093;51.424;11.764;2024-03-02T14:03:05;14.40;1.40
2174;DHT22;1093;51.424;11.764;2024-03-02T14:05:33;14.40;1.40
2174;DHT22;1093;51.424;11.764;2024-03-02T14:07:59;14.40;1.40
2174;DHT22;1093;51.424;11.764;2024-03-02T14:10:27;14.50;1.40
2174;DHT22;1093;51.424;11.764;2024-03-02T14:12:54;14.50;1.40
2174;DHT22;1093;51.424;11.764;2024-03-02T14:15:23;14.50;1.40
2174;DHT22;1093;51.424;11.764;2024-03-02T14:17:50;14.60;1.40
2174;DHT22;1093;51.424;11.764;2024-03-02T14:20:17;14.60;1.40
2174;DHT22;1093;51.424;11.764;2024-03-02T14:22:48;14.70;1.40
2174;DHT22;1093;51.424;11.764;2024-03-02T14:25:15;14.70;1.40
2174;DHT22;1093;51.424;11.764;2024-03-02T14:27:42;14.70;1.40
2174;DHT22;1093;51.424;11.764;2024-03-02T14:30:10;14.70;1.40
2174;DHT22;1093;51.424;11.764;2024-03-02T14:32:40;14.60;1.40
2174;DHT22;1093;51.424;11.764;2024-03-02T14:35:09;14.70;1.40
2174;DHT22;1093;51.424;11.764;2024-03-02T14:37:37;14.70;1.40
2174;DHT22;1093;51.424;11.764;2024-03-02T14:40:05;14.70;1.40
2174;DHT22;1093;51.424;11.764;2024-03-02T14:42:35;14.70;1.40
2174;DHT22;1093;51.424;11.764;2024-03-02T14:45:02;14.70;1.40
2174;DHT22;1093;51.424;11.764;2024-03-02T14:47:32;14.70;1.40
2174;DHT22;1093;51.424;11.764;2024-03-02T14:50:00;14.80;1.40
2174;DHT22;1093;51.424;11.764;2024-03-02T14:52:31;14.90;1.40
2174;DHT22;1093;51.424;11.764;2024-03-02T14:54:58;14.90;1.40
2174;DHT22;1093;51.424;11.764;2024-03-02T14:57:25;15.00;1.40
2174;DHT22;1093;51.424;11.764;2024-03-02T14:59:52;15.00;1.40
2174;DHT22;1093;51.424;11.764;2024-03-02T15:02:20;15.10;1.40
2174;DHT22;1093;51.424;11.764;2024-03-02T15:04:47;15.00;1.40
2174;DHT22;1093;51.424;11.764;2024-03-02T15:07:16;15.10;1.40
2174;DHT22;1093;51.424;11.764;2024-03-02T15:09:43;15.10;1.40
2174;DHT22;1093;51.424;11.764;2024-03-02T15:12:10;15.10;1.40
2174;DHT22;1093;51.424;11.764;2024-03-02T15:14:38;15.10;1.40
2174;DHT22;1093;51.424;11.764;2024-03-02T15:17:11;15.10;1.40
2174;DHT22;1093;51.424;11.764;2024-03-02T15:19:40;15.10;1.40
2174;DHT22;1093;51.424;11.764;2024-03-02T15:22:07;15.20;1.40
2174;DHT22;1093;51.424;11.764;2024-03-02T15:24:36;15.20;1.40
2174;DHT22;1093;51.424;11.764;2024-03-02T15:27:04;15.20;1.40
2174;DHT22;1093;51.424;11.764;2024-03-02T15:29:33;15.10;1.40
2174;DHT22;1093;51.424;11.764;2024-03-02T15:32:01;15.00;1.40
2174;DHT22;1093;51.424;11.764;2024-03-02T15:34:30;15.10;1.40
2174;DHT22;1093;51.424;11.764;2024-03-02T15:36:57;15.00;1.40
2174;DHT22;1093;51.424;11.764;2024-03-02T15:39:25;15.10;1.40
2174;DHT22;1093;51.424;11.764;2024-03-02T15:41:53;15.00;1.40
2174;DHT22;1093;51.424;11.764;2024-03-02T15:44:20;14.90;1.40
2174;DHT22;1093;51.424;11.764;2024-03-02T15:46:47;14.90;1.40
2174;DHT22;1093;51.424;11.764;2024-03-02T15:49:14;14.90;1.40
2174;DHT22;1093;51.424;11.764;2024-03-02T15:51:41;14.80;1.40
2174;DHT22;1093;51.424;11.764;2024-03-02T15:54:09;14.80;1.40
2174;DHT22;1093;51.424;11.764;2024-03-02T15:56:36;14.80;1.40
2174;DHT22;1093;51.424;11.764;2024-03-02T15:59:05;14.70;1.40
2174;DHT22;1093;51.424;11.764;2024-03-02T16:01:32;14.70;1.40
2174;DHT22;1093;51.424;11.764;2024-03-02T16:03:59;14.60;1.40
2174;DHT22;1093;51.424;11.764;2024-03-02T16:06:26;14.60;1.40
2174;DHT22;1093;51.424;11.764;2024-03-02T16:08:53;14.50;1.40
2174;DHT22;1093;51.424;11.764;2024-03-02T16:11:29;14.30;1.40
2174;DHT22;1093;51.424;11.764;2024-03-02T16:14:23;14.20;1.40
2174;DHT22;1093;51.424;11.764;2024-03-02T16:17:29;14.00;1.40